createdAt,value
2023-05-08T00:01:15.646Z,4.73
2023-05-08T00:03:43.961Z,4.13
2023-05-08T00:06:12.085Z,4.77
2023-05-08T00:08:40.376Z,3.97
2023-05-08T00:11:09.781Z,4.63
2023-05-08T00:13:37.805Z,4.60
2023-05-08T00:16:06.499Z,5.00
2023-05-08T00:18:34.563Z,4.30
2023-05-08T00:21:02.755Z,4.97
2023-05-08T00:23:30.878Z,4.60
2023-05-08T00:25:59.267Z,4.60
2023-05-08T00:28:28.775Z,4.50
2023-05-08T00:30:56.845Z,4.67
2023-05-08T00:33:24.837Z,4.60
2023-05-08T00:35:52.827Z,4.67
2023-05-08T00:38:20.854Z,4.83
2023-05-08T00:40:48.929Z,4.53
2023-05-08T00:43:17.091Z,4.50
2023-05-08T00:45:46.905Z,4.03
2023-05-08T00:48:14.987Z,4.10
2023-05-08T00:50:43.071Z,4.67
2023-05-08T00:53:13.106Z,4.50
2023-05-08T00:55:41.356Z,4.33
2023-05-08T00:58:09.725Z,4.40
2023-05-08T01:00:39.346Z,5.07
2023-05-08T01:03:09.321Z,4.83
2023-05-08T01:05:37.487Z,4.57
2023-05-08T01:08:06.516Z,5.03
2023-05-08T01:10:43.792Z,4.40
2023-05-08T01:13:32.646Z,5.00
2023-05-08T01:16:08.049Z,4.73
2023-05-08T01:18:42.223Z,4.00
2023-05-08T01:21:17.785Z,4.23
2023-05-08T01:24:20.945Z,4.60
2023-05-08T01:27:19.804Z,4.87
2023-05-08T01:30:31.857Z,4.30
2023-05-08T01:33:08.665Z,4.50
2023-05-08T01:35:44.273Z,4.77
2023-05-08T01:38:20.258Z,4.50
2023-05-08T01:40:54.798Z,4.07
2023-05-08T01:43:30.896Z,4.40
2023-05-08T01:46:04.095Z,4.20
2023-05-08T01:48:35.930Z,4.83
2023-05-08T01:51:09.372Z,4.77
2023-05-08T01:53:42.299Z,4.50
2023-05-08T01:56:14.401Z,4.50
2023-05-08T01:58:44.975Z,4.30
2023-05-08T02:01:14.899Z,3.87
2023-05-08T02:03:45.650Z,4.93
2023-05-08T02:06:16.780Z,4.37
2023-05-08T02:08:47.882Z,4.10
2023-05-08T02:11:17.410Z,4.63
2023-05-08T02:13:47.438Z,4.03
2023-05-08T02:16:16.193Z,4.73
2023-05-08T02:18:50.583Z,4.50
2023-05-08T02:21:19.674Z,4.23
2023-05-08T02:23:48.866Z,4.37
2023-05-08T02:26:17.442Z,4.13
2023-05-08T02:28:46.460Z,4.10
2023-05-08T02:31:15.357Z,4.00
2023-05-08T02:33:45.941Z,4.50
2023-05-08T02:36:18.690Z,3.73
2023-05-08T02:38:49.929Z,3.97
2023-05-08T02:41:20.441Z,4.60
2023-05-08T02:43:48.612Z,4.60
2023-05-08T02:46:21.038Z,4.30
2023-05-08T02:48:58.196Z,4.40
2023-05-08T02:51:30.802Z,4.20
2023-05-08T02:54:05.795Z,4.03
2023-05-08T02:56:38.847Z,4.37
2023-05-08T02:59:17.705Z,3.83
2023-05-08T03:01:51.606Z,3.87
2023-05-08T03:04:27.976Z,4.33
2023-05-08T03:06:58.627Z,3.77
2023-05-08T03:09:32.989Z,4.37
2023-05-08T03:12:07.068Z,4.33
2023-05-08T03:14:42.612Z,3.90
2023-05-08T03:17:16.292Z,4.00
2023-05-08T03:19:50.783Z,4.33
2023-05-08T03:22:21.336Z,4.50
2023-05-08T03:24:50.427Z,4.03
2023-05-08T03:27:21.434Z,3.73
2023-05-08T03:29:50.721Z,4.40
2023-05-08T03:32:19.414Z,4.40
2023-05-08T03:34:50.673Z,4.90
2023-05-08T03:37:19.410Z,4.23
2023-05-08T03:39:47.658Z,4.33
2023-05-08T03:42:21.257Z,4.00
2023-05-08T03:44:51.898Z,4.13
2023-05-08T03:47:20.643Z,4.43
2023-05-08T03:49:52.393Z,4.10
2023-05-08T03:52:20.675Z,5.00
2023-05-08T03:54:48.870Z,4.20
2023-05-08T03:57:18.190Z,4.43
2023-05-08T03:59:55.697Z,4.10
2023-05-08T04:02:42.159Z,5.00
2023-05-08T04:05:22.286Z,4.73
2023-05-08T04:07:57.543Z,3.93
2023-05-08T04:10:31.687Z,4.20
2023-05-08T04:13:06.404Z,4.63
2023-05-08T04:15:39.708Z,4.03
2023-05-08T04:18:11.104Z,4.33
2023-05-08T04:20:44.490Z,4.90
2023-05-08T04:23:16.884Z,4.40
2023-05-08T04:25:46.999Z,4.37
2023-05-08T04:28:16.386Z,4.03
2023-05-08T04:30:46.174Z,4.87
2023-05-08T04:33:16.471Z,4.80
2023-05-08T04:35:46.413Z,4.33
2023-05-08T04:38:15.211Z,5.27
2023-05-08T04:40:44.013Z,4.80
2023-05-08T04:43:12.985Z,4.93
2023-05-08T04:45:41.291Z,4.80
2023-05-08T04:48:09.795Z,4.60
2023-05-08T04:50:37.892Z,4.60
2023-05-08T04:53:07.487Z,4.40
2023-05-08T04:55:36.012Z,4.80
2023-05-08T04:58:04.559Z,4.50
2023-05-08T05:00:32.635Z,5.03
2023-05-08T05:03:00.842Z,4.63
2023-05-08T05:05:29.191Z,4.40
2023-05-08T05:07:57.263Z,5.10
2023-05-08T05:10:27.756Z,4.87
2023-05-08T05:12:55.861Z,6.47
2023-05-08T05:15:23.991Z,4.93
2023-05-08T05:17:52.194Z,5.40
2023-05-08T05:20:20.771Z,4.20
2023-05-08T05:22:49.005Z,5.27
2023-05-08T05:25:17.175Z,4.27
2023-05-08T05:27:47.826Z,5.03
2023-05-08T05:30:16.514Z,4.60
2023-05-08T05:32:45.044Z,4.50
2023-05-08T05:35:13.513Z,4.33
2023-05-08T05:37:42.177Z,4.07
2023-05-08T05:40:13.206Z,4.73
2023-05-08T05:42:41.637Z,4.60
2023-05-08T05:45:13.438Z,5.10
2023-05-08T05:47:46.340Z,4.30
2023-05-08T05:50:14.947Z,4.80
2023-05-08T05:52:43.123Z,4.80
2023-05-08T05:55:11.560Z,5.00
2023-05-08T05:57:39.976Z,5.00
2023-05-08T06:00:09.318Z,4.30
2023-05-08T06:02:48.247Z,5.00
2023-05-08T06:05:19.151Z,4.60
2023-05-08T06:07:47.359Z,4.30
2023-05-08T06:10:15.461Z,4.80
2023-05-08T06:12:45.407Z,4.50
2023-05-08T06:15:15.253Z,4.53
2023-05-08T06:17:47.103Z,4.50
2023-05-08T06:20:15.575Z,5.13
2023-05-08T06:22:43.636Z,5.30
2023-05-08T06:25:11.949Z,4.53
2023-05-08T06:27:40.191Z,4.97
2023-05-08T06:30:10.608Z,4.47
2023-05-08T06:32:38.815Z,4.50
2023-05-08T06:35:09.373Z,4.53
2023-05-08T06:37:37.566Z,4.97
2023-05-08T06:42:37.704Z,4.97
2023-05-08T06:45:06.455Z,5.20
2023-05-08T06:47:34.922Z,4.67
2023-05-08T06:50:03.307Z,4.80
2023-05-08T06:52:32.717Z,4.40
2023-05-08T06:55:00.801Z,5.43
2023-05-08T06:57:30.278Z,5.03
2023-05-08T06:59:58.351Z,5.70
2023-05-08T07:02:26.456Z,5.00
2023-05-08T07:04:54.587Z,5.10
2023-05-08T07:07:22.777Z,4.00
2023-05-08T07:09:52.198Z,5.47
2023-05-08T07:12:20.371Z,4.60
2023-05-08T07:14:48.410Z,5.77
2023-05-08T07:17:16.811Z,5.60
2023-05-08T07:19:44.877Z,4.67
2023-05-08T07:22:12.954Z,4.73
2023-05-08T07:24:41.113Z,4.60
2023-05-08T07:27:10.485Z,4.67
2023-05-08T07:29:38.488Z,4.90
2023-05-08T07:32:08.536Z,5.37
2023-05-08T07:34:37.010Z,6.03
2023-05-08T07:37:05.140Z,4.83
2023-05-08T07:39:33.243Z,5.30
2023-05-08T07:42:01.504Z,5.00
2023-05-08T07:44:40.372Z,4.87
2023-05-08T07:47:15.275Z,5.33
2023-05-08T07:49:43.437Z,5.33
2023-05-08T07:52:11.620Z,4.77
2023-05-08T07:54:39.823Z,4.37
2023-05-08T07:57:07.843Z,6.10
2023-05-08T07:59:37.243Z,5.20
2023-05-08T08:02:05.522Z,5.50
2023-05-08T08:04:33.719Z,4.90
2023-05-08T08:07:01.815Z,5.27
2023-05-08T08:09:29.889Z,4.80
2023-05-08T08:11:58.438Z,5.43
2023-05-08T08:14:26.495Z,5.47
2023-05-08T08:16:56.034Z,5.30
2023-05-08T08:19:24.216Z,4.60
2023-05-08T08:21:52.275Z,4.73
2023-05-08T08:24:20.848Z,4.70
2023-05-08T08:26:48.883Z,4.70
2023-05-08T08:29:17.328Z,4.97
2023-05-08T08:31:45.744Z,5.73
2023-05-08T08:34:15.132Z,5.90
2023-05-08T08:36:43.249Z,5.13
2023-05-08T08:39:13.408Z,5.17
2023-05-08T08:41:42.901Z,5.33
2023-05-08T08:44:11.054Z,5.60
2023-05-08T08:46:45.032Z,5.80
2023-05-08T08:49:18.998Z,5.13
2023-05-08T08:51:51.240Z,5.50
2023-05-08T08:54:24.033Z,5.87
2023-05-08T08:56:53.402Z,5.77
2023-05-08T08:59:24.648Z,5.23
2023-05-08T09:01:57.924Z,5.20
2023-05-08T09:04:27.605Z,5.87
2023-05-08T09:06:58.113Z,5.20
2023-05-08T09:09:28.782Z,5.80
2023-05-08T09:11:57.104Z,5.10
2023-05-08T09:14:26.740Z,4.77
2023-05-08T09:16:55.202Z,6.00
2023-05-08T09:19:26.321Z,5.87
2023-05-08T09:21:56.881Z,5.37
2023-05-08T09:24:24.958Z,4.43
2023-05-08T09:26:53.017Z,5.03
2023-05-08T09:29:22.520Z,4.77
2023-05-08T09:31:51.820Z,5.20
2023-05-08T09:34:28.294Z,4.97
2023-05-08T09:37:11.550Z,5.10
2023-05-08T09:39:41.392Z,4.97
2023-05-08T09:42:09.535Z,4.70
2023-05-08T09:44:48.346Z,5.10
2023-05-08T09:47:18.764Z,4.20
2023-05-08T09:49:58.841Z,5.27
2023-05-08T09:52:29.026Z,5.00
2023-05-08T09:55:01.815Z,4.80
2023-05-08T09:57:31.514Z,5.13
2023-05-08T10:00:05.968Z,5.23
2023-05-08T10:02:36.052Z,5.00
2023-05-08T10:05:05.647Z,5.47
2023-05-08T10:07:37.086Z,4.60
2023-05-08T10:10:07.187Z,5.27
2023-05-08T10:12:35.898Z,4.57
2023-05-08T10:15:04.048Z,4.67
2023-05-08T10:17:39.816Z,4.70
2023-05-08T10:20:09.232Z,4.67
2023-05-08T10:22:39.883Z,5.13
2023-05-08T10:25:16.460Z,5.00
2023-05-08T10:27:53.315Z,5.23
2023-05-08T10:30:25.929Z,4.53
2023-05-08T10:32:55.503Z,4.77
2023-05-08T10:35:23.920Z,5.47
2023-05-08T10:37:54.736Z,5.00
2023-05-08T10:40:23.952Z,5.53
2023-05-08T10:42:52.564Z,5.27
2023-05-08T10:45:20.935Z,5.20
2023-05-08T10:48:05.822Z,6.30
2023-05-08T10:50:46.473Z,6.10
2023-05-08T10:53:20.007Z,7.00
2023-05-08T10:55:52.365Z,6.20
2023-05-08T10:58:31.521Z,5.80
2023-05-08T11:01:13.486Z,5.53
2023-05-08T11:03:43.757Z,6.10
2023-05-08T11:06:12.339Z,6.30
2023-05-08T11:08:54.671Z,5.77
2023-05-08T11:11:29.010Z,5.47
2023-05-08T11:14:10.778Z,6.50
2023-05-08T11:17:07.940Z,5.90
2023-05-08T11:19:37.138Z,6.30
2023-05-08T11:22:30.314Z,7.43
2023-05-08T11:25:05.048Z,6.20
2023-05-08T11:27:39.241Z,6.50
2023-05-08T11:30:35.847Z,6.33
2023-05-08T11:33:29.987Z,6.13
2023-05-08T11:35:59.765Z,6.50
2023-05-08T11:38:34.014Z,5.80
2023-05-08T11:41:06.141Z,6.60
2023-05-08T11:44:15.250Z,6.50
2023-05-08T11:46:52.120Z,6.30
2023-05-08T11:49:26.011Z,6.43
2023-05-08T11:51:59.502Z,6.70
2023-05-08T11:54:31.060Z,6.30
2023-05-08T11:57:01.740Z,6.77
2023-05-08T11:59:30.014Z,6.57
2023-05-08T12:02:07.576Z,6.50
2023-05-08T12:04:45.313Z,7.37
2023-05-08T12:07:13.550Z,6.73
2023-05-08T12:09:41.696Z,7.20
2023-05-08T12:12:11.130Z,5.63
2023-05-08T12:14:39.244Z,5.87
2023-05-08T12:17:07.422Z,7.10
2023-05-08T12:19:35.792Z,6.70
2023-05-08T12:22:03.927Z,7.23
2023-05-08T12:24:32.160Z,6.27
2023-05-08T12:27:00.381Z,6.80
2023-05-08T12:29:29.892Z,6.87
2023-05-08T12:31:58.098Z,8.00
2023-05-08T12:34:26.360Z,7.07
2023-05-08T12:37:03.533Z,7.13
2023-05-08T12:39:37.356Z,7.73
2023-05-08T12:42:05.632Z,7.00
2023-05-08T12:44:35.120Z,7.50
2023-05-08T12:47:03.486Z,9.27
2023-05-08T12:49:33.006Z,6.50
2023-05-08T12:52:05.665Z,6.10
2023-05-08T12:54:37.889Z,6.80
2023-05-08T12:57:12.744Z,6.33
2023-05-08T12:59:43.248Z,6.77
2023-05-08T13:02:16.567Z,6.43
2023-05-08T13:04:46.011Z,7.30
2023-05-08T13:07:14.545Z,7.47
2023-05-08T13:09:57.593Z,7.43
2023-05-08T13:12:25.870Z,7.33
2023-05-08T13:14:55.296Z,6.97
2023-05-08T13:17:23.427Z,6.20
2023-05-08T13:19:51.552Z,6.67
2023-05-08T13:22:22.953Z,7.20
2023-05-08T13:24:51.015Z,6.23
2023-05-08T13:27:19.172Z,7.03
2023-05-08T13:29:47.245Z,6.83
2023-05-08T13:32:16.870Z,6.50
2023-05-08T13:34:50.423Z,7.03
2023-05-08T13:37:20.431Z,7.10
2023-05-08T13:39:48.550Z,6.90
2023-05-08T13:42:16.657Z,6.83
2023-05-08T13:44:44.743Z,6.37
2023-05-08T13:47:13.014Z,7.13
2023-05-08T13:49:44.064Z,7.30
2023-05-08T13:52:12.223Z,7.00
2023-05-08T13:54:40.288Z,7.00
2023-05-08T13:57:08.643Z,6.13
2023-05-08T13:59:36.846Z,5.03
2023-05-08T14:02:04.973Z,6.23
2023-05-08T14:04:33.085Z,6.50
2023-05-08T14:07:02.477Z,7.03
2023-05-08T14:09:30.668Z,6.83
2023-05-08T14:11:58.753Z,6.50
2023-05-08T14:14:26.806Z,5.70
2023-05-08T14:16:54.838Z,5.77
2023-05-08T14:19:22.904Z,5.30
2023-05-08T14:21:51.391Z,5.10
2023-05-08T14:24:20.735Z,6.17
2023-05-08T14:26:48.837Z,5.83
2023-05-08T14:29:18.764Z,5.30
2023-05-08T14:31:46.916Z,6.10
2023-05-08T14:34:15.006Z,5.10
2023-05-08T14:36:43.022Z,5.40
2023-05-08T14:39:11.730Z,7.25
2023-05-08T14:41:48.083Z,6.60
2023-05-08T14:44:27.820Z,6.50
2023-05-08T14:46:56.225Z,5.47
2023-05-08T14:49:36.497Z,5.43
2023-05-08T14:52:06.657Z,4.83
2023-05-08T14:54:34.998Z,5.30
2023-05-08T14:57:04.580Z,6.70
2023-05-08T14:59:32.592Z,8.10
2023-05-08T15:02:00.664Z,6.10
2023-05-08T15:04:28.838Z,8.27
2023-05-08T15:06:56.903Z,6.80
2023-05-08T15:09:24.941Z,7.60
2023-05-08T15:11:53.002Z,6.70
2023-05-08T15:14:22.380Z,6.03
2023-05-08T15:16:50.429Z,26.60
2023-05-08T15:19:18.494Z,13.67
2023-05-08T15:21:46.569Z,15.00
2023-05-08T15:24:14.616Z,9.70
2023-05-08T15:26:42.624Z,7.47
2023-05-08T15:29:10.662Z,6.93
2023-05-08T15:31:40.017Z,7.07
2023-05-08T15:34:08.088Z,8.10
2023-05-08T15:36:36.146Z,6.97
2023-05-08T15:39:04.700Z,6.83
2023-05-08T15:41:32.763Z,6.93
2023-05-08T15:44:00.805Z,7.47
2023-05-08T15:46:29.206Z,7.67
2023-05-08T15:49:00.535Z,9.03
2023-05-08T15:51:29.970Z,7.20
2023-05-08T15:53:57.991Z,6.87
2023-05-08T15:56:26.382Z,7.40
2023-05-08T15:58:55.461Z,5.40
2023-05-08T16:01:23.543Z,8.30
2023-05-08T16:03:51.637Z,6.30
2023-05-08T16:06:21.010Z,5.97
2023-05-08T16:08:49.036Z,6.50
2023-05-08T16:11:17.036Z,7.50
2023-05-08T16:13:45.953Z,6.17
2023-05-08T16:16:14.048Z,5.80
2023-05-08T16:18:42.409Z,6.10
2023-05-08T16:21:10.986Z,6.57
2023-05-08T16:23:40.376Z,6.00
2023-05-08T16:26:08.461Z,6.00
2023-05-08T16:28:36.538Z,5.37
2023-05-08T16:31:06.153Z,5.57
2023-05-08T16:33:34.311Z,4.93
2023-05-08T16:36:02.330Z,6.13
2023-05-08T16:38:30.400Z,5.07
2023-05-08T16:41:04.250Z,4.87
2023-05-08T16:43:32.475Z,5.00
2023-05-08T16:46:00.685Z,5.40
2023-05-08T16:48:30.252Z,5.43
2023-05-08T16:50:58.308Z,5.47
2023-05-08T16:53:27.283Z,5.93
2023-05-08T16:55:55.796Z,5.90
2023-05-08T16:58:27.030Z,5.30
2023-05-08T17:00:55.103Z,6.00
2023-05-08T17:03:23.198Z,5.70
2023-05-08T17:05:51.474Z,6.60
2023-05-08T17:08:19.543Z,5.70
2023-05-08T17:10:47.590Z,5.60
2023-05-08T17:13:15.728Z,5.90
2023-05-08T17:15:45.130Z,5.40
2023-05-08T17:18:13.317Z,5.63
2023-05-08T17:20:42.392Z,6.20
2023-05-08T17:23:10.939Z,5.30
2023-05-08T17:25:39.028Z,5.40
2023-05-08T17:28:07.140Z,6.13
2023-05-08T17:30:35.179Z,5.77
2023-05-08T17:33:04.613Z,5.50
2023-05-08T17:35:32.750Z,6.03
2023-05-08T17:38:01.179Z,10.50
2023-05-08T17:40:29.272Z,6.40
2023-05-08T17:42:59.081Z,5.93
2023-05-08T17:45:27.438Z,6.17
2023-05-08T17:47:55.581Z,6.07
2023-05-08T17:50:25.296Z,6.30
2023-05-08T17:52:53.421Z,6.27
2023-05-08T17:55:21.599Z,7.10
2023-05-08T17:57:49.614Z,5.87
2023-05-08T18:00:18.214Z,7.23
2023-05-08T18:02:46.362Z,6.27
2023-05-08T18:05:15.627Z,6.43
2023-05-08T18:07:45.050Z,6.50
2023-05-08T18:10:13.473Z,6.50
2023-05-08T18:12:41.760Z,6.47
2023-05-08T18:15:11.015Z,6.80
2023-05-08T18:17:39.196Z,5.50
2023-05-08T18:20:09.299Z,5.83
2023-05-08T18:22:37.573Z,6.97
2023-05-08T18:25:07.684Z,6.13
2023-05-08T18:27:35.727Z,6.17
2023-05-08T18:30:04.286Z,5.87
2023-05-08T18:32:32.388Z,6.77
2023-05-08T18:35:00.457Z,7.30
2023-05-08T18:37:28.491Z,6.13
2023-05-08T18:39:56.518Z,7.00
2023-05-08T18:42:25.980Z,6.23
2023-05-08T18:44:55.542Z,5.90
2023-05-08T18:47:23.592Z,7.03
2023-05-08T18:49:52.401Z,6.50
2023-05-08T18:52:20.461Z,6.30
2023-05-08T18:54:48.443Z,8.80
2023-05-08T18:57:16.485Z,6.77
2023-05-08T18:59:45.856Z,6.80
2023-05-08T19:02:14.415Z,6.27
2023-05-08T19:04:42.481Z,6.33
2023-05-08T19:07:10.500Z,7.13
2023-05-08T19:09:38.490Z,6.30
2023-05-08T19:12:06.646Z,6.57
2023-05-08T19:14:34.701Z,6.00
2023-05-08T19:17:04.245Z,7.83
2023-05-08T19:19:32.376Z,6.83
2023-05-08T19:22:00.605Z,7.30
2023-05-08T19:24:31.200Z,6.47
2023-05-08T19:26:59.444Z,6.20
2023-05-08T19:29:27.767Z,6.87
2023-05-08T19:31:56.463Z,7.40
2023-05-08T19:34:26.026Z,7.63
2023-05-08T19:36:54.078Z,6.90
2023-05-08T19:39:22.087Z,7.20
2023-05-08T19:41:50.096Z,7.10
2023-05-08T19:44:18.131Z,7.97
2023-05-08T19:46:46.156Z,8.13
2023-05-08T19:49:17.196Z,7.67
2023-05-08T19:51:48.423Z,7.40
2023-05-08T19:54:16.544Z,7.33
2023-05-08T19:56:44.562Z,7.73
2023-05-08T19:59:12.564Z,8.70
2023-05-08T20:01:40.705Z,7.47
2023-05-08T20:04:08.974Z,7.00
2023-05-08T20:06:38.275Z,7.70
2023-05-08T20:09:07.740Z,7.90
2023-05-08T20:11:36.051Z,7.13
2023-05-08T20:14:03.999Z,8.23
2023-05-08T20:16:31.984Z,8.30
2023-05-08T20:19:01.494Z,7.90
2023-05-08T20:21:32.149Z,8.10
2023-05-08T20:24:00.435Z,7.90
2023-05-08T20:26:30.283Z,6.90
2023-05-08T20:28:58.598Z,7.73
2023-05-08T20:31:27.695Z,7.57
2023-05-08T20:33:55.827Z,8.30
2023-05-08T20:36:23.995Z,7.27
2023-05-08T20:38:52.211Z,7.40
2023-05-08T20:41:20.283Z,6.77
2023-05-08T20:43:49.685Z,7.77
2023-05-08T20:46:17.748Z,7.13
2023-05-08T20:48:45.886Z,6.90
2023-05-08T20:51:15.501Z,7.10
2023-05-08T20:53:44.315Z,6.87
2023-05-08T20:56:15.698Z,7.37
2023-05-08T20:58:46.022Z,6.97
2023-05-08T21:01:15.507Z,6.30
2023-05-08T21:03:43.806Z,6.53
2023-05-08T21:06:12.165Z,7.23
2023-05-08T21:08:40.190Z,7.23
2023-05-08T21:11:08.243Z,6.73
2023-05-08T21:13:36.285Z,6.90
2023-05-08T21:16:05.635Z,7.27
2023-05-08T21:18:35.097Z,6.63
2023-05-08T21:21:03.200Z,7.80
2023-05-08T21:23:31.333Z,7.27
2023-05-08T21:25:59.304Z,6.63
2023-05-08T21:28:27.270Z,6.60
2023-05-08T21:30:55.230Z,8.70
2023-05-08T21:33:23.265Z,7.20
2023-05-08T21:35:52.864Z,6.60
2023-05-08T21:38:20.831Z,6.60
2023-05-08T21:40:48.779Z,7.20
2023-05-08T21:43:16.693Z,6.87
2023-05-08T21:45:44.701Z,6.20
2023-05-08T21:48:12.722Z,7.17
2023-05-08T21:50:40.789Z,6.57
2023-05-08T21:53:10.185Z,6.70
2023-05-08T21:55:38.189Z,6.93
2023-05-08T21:58:06.200Z,6.73
2023-05-08T22:00:34.249Z,6.73
2023-05-08T22:03:02.411Z,6.30
2023-05-08T22:05:30.526Z,6.07
2023-05-08T22:07:58.590Z,6.67
2023-05-08T22:10:27.999Z,7.53
2023-05-08T22:12:56.204Z,6.90
2023-05-08T22:15:30.318Z,6.20
2023-05-08T22:17:59.152Z,7.50
2023-05-08T22:20:27.355Z,5.90
2023-05-08T22:22:55.431Z,6.03
2023-05-08T22:25:23.529Z,7.30
2023-05-08T22:27:52.949Z,6.37
2023-05-08T22:30:21.123Z,6.83
2023-05-08T22:32:54.988Z,6.53
2023-05-08T22:35:24.143Z,6.40
2023-05-08T22:37:52.366Z,6.63
2023-05-08T22:40:21.349Z,6.10
2023-05-08T22:42:51.267Z,6.20
2023-05-08T22:45:21.062Z,7.07
2023-05-08T22:47:49.209Z,6.20
2023-05-08T22:50:17.485Z,5.87
2023-05-08T22:52:45.752Z,6.67
2023-05-08T22:55:15.435Z,6.70
2023-05-08T22:57:43.751Z,7.27
2023-05-08T23:00:13.033Z,6.20
2023-05-08T23:02:42.487Z,6.87
2023-05-08T23:05:10.905Z,8.00
2023-05-08T23:07:38.933Z,6.90
2023-05-08T23:10:07.968Z,6.43
2023-05-08T23:12:36.958Z,6.10
2023-05-08T23:15:05.575Z,7.10
2023-05-08T23:17:33.738Z,6.40
2023-05-08T23:20:03.757Z,6.80
2023-05-08T23:22:31.789Z,7.43
2023-05-08T23:24:59.799Z,6.90
2023-05-08T23:27:27.846Z,6.70
2023-05-08T23:29:55.911Z,7.23
2023-05-08T23:32:23.987Z,6.30
2023-05-08T23:34:52.034Z,6.73
2023-05-08T23:37:21.463Z,6.30
2023-05-08T23:39:49.519Z,7.03
2023-05-08T23:42:17.560Z,7.57
2023-05-08T23:44:45.620Z,7.93
2023-05-08T23:47:13.634Z,6.50
2023-05-08T23:49:41.717Z,7.17
2023-05-08T23:52:10.102Z,6.90
2023-05-08T23:54:39.455Z,8.03
2023-05-08T23:57:07.481Z,7.83
2023-05-08T23:59:35.548Z,6.70
